sensor_id;sensor_type;location;lat;lon;timestamp;temperature;humidity
63771;DHT22;60282;43.862;18.430;2022-08-19T00:00:18;21.70;98.70
63771;DHT22;60282;43.862;18.430;2022-08-19T00:02:45;22.30;99.20
63771;DHT22;60282;43.862;18.430;2022-08-19T00:05:12;22.30;99.00
63771;DHT22;60282;43.862;18.430;2022-08-19T00:07:38;22.30;99.10
63771;DHT22;60282;43.862;18.430;2022-08-19T00:10:06;22.30;99.90
63771;DHT22;60282;43.862;18.430;2022-08-19T00:12:33;22.40;99.30
63771;DHT22;60282;43.862;18.430;2022-08-19T00:14:59;22.70;99.90
63771;DHT22;60282;43.862;18.430;2022-08-19T00:17:25;23.00;99.90
63771;DHT22;60282;43.862;18.430;2022-08-19T00:19:51;23.40;99.90
63771;DHT22;60282;43.862;18.430;2022-08-19T00:22:17;23.00;99.20
63771;DHT22;60282;43.862;18.430;2022-08-19T00:24:49;23.10;98.90
63771;DHT22;60282;43.862;18.430;2022-08-19T00:27:15;23.10;98.10
63771;DHT22;60282;43.862;18.430;2022-08-19T00:29:41;22.70;98.40
63771;DHT22;60282;43.862;18.430;2022-08-19T00:32:07;22.70;99.30
63771;DHT22;60282;43.862;18.430;2022-08-19T00:34:33;22.70;99.60
63771;DHT22;60282;43.862;18.430;2022-08-19T00:36:59;22.80;99.40
63771;DHT22;60282;43.862;18.430;2022-08-19T00:39:25;22.70;98.90
63771;DHT22;60282;43.862;18.430;2022-08-19T00:41:52;22.40;99.00
63771;DHT22;60282;43.862;18.430;2022-08-19T00:44:21;22.20;99.40
63771;DHT22;60282;43.862;18.430;2022-08-19T00:46:49;22.10;99.90
63771;DHT22;60282;43.862;18.430;2022-08-19T00:49:22;21.90;99.90
63771;DHT22;60282;43.862;18.430;2022-08-19T00:51:53;21.80;99.90
63771;DHT22;60282;43.862;18.430;2022-08-19T00:54:20;21.80;99.90
63771;DHT22;60282;43.862;18.430;2022-08-19T00:56:47;21.60;99.90
63771;DHT22;60282;43.862;18.430;2022-08-19T00:59:15;21.60;99.90
63771;DHT22;60282;43.862;18.430;2022-08-19T01:01:43;21.60;99.90
63771;DHT22;60282;43.862;18.430;2022-08-19T01:04:11;21.60;99.90
63771;DHT22;60282;43.862;18.430;2022-08-19T01:06:41;21.60;99.90
63771;DHT22;60282;43.862;18.430;2022-08-19T01:09:07;21.60;99.90
63771;DHT22;60282;43.862;18.430;2022-08-19T01:11:38;21.50;99.90
63771;DHT22;60282;43.862;18.430;2022-08-19T01:14:06;21.50;99.90
63771;DHT22;60282;43.862;18.430;2022-08-19T01:16:33;21.60;99.90
63771;DHT22;60282;43.862;18.430;2022-08-19T01:19:00;21.80;99.90
63771;DHT22;60282;43.862;18.430;2022-08-19T01:21:29;21.70;99.90
63771;DHT22;60282;43.862;18.430;2022-08-19T01:23:57;21.70;99.90
63771;DHT22;60282;43.862;18.430;2022-08-19T01:26:24;21.70;99.90
63771;DHT22;60282;43.862;18.430;2022-08-19T01:28:53;22.20;99.90
63771;DHT22;60282;43.862;18.430;2022-08-19T01:31:22;23.50;99.90
63771;DHT22;60282;43.862;18.430;2022-08-19T01:33:52;22.30;99.90
63771;DHT22;60282;43.862;18.430;2022-08-19T01:38:55;22.60;99.90
63771;DHT22;60282;43.862;18.430;2022-08-19T01:41:21;24.30;99.90
63771;DHT22;60282;43.862;18.430;2022-08-19T01:43:48;23.00;99.40
63771;DHT22;60282;43.862;18.430;2022-08-19T01:46:14;23.10;99.40
63771;DHT22;60282;43.862;18.430;2022-08-19T01:48:42;22.90;99.50
63771;DHT22;60282;43.862;18.430;2022-08-19T01:51:09;22.90;99.30
63771;DHT22;60282;43.862;18.430;2022-08-19T01:53:35;22.70;98.90
63771;DHT22;60282;43.862;18.430;2022-08-19T01:56:02;22.30;99.20
63771;DHT22;60282;43.862;18.430;2022-08-19T01:58:35;21.90;99.90
63771;DHT22;60282;43.862;18.430;2022-08-19T02:01:03;21.70;99.90
63771;DHT22;60282;43.862;18.430;2022-08-19T02:03:29;21.50;99.90
63771;DHT22;60282;43.862;18.430;2022-08-19T02:06:00;21.30;99.90
63771;DHT22;60282;43.862;18.430;2022-08-19T02:08:28;21.20;99.90
63771;DHT22;60282;43.862;18.430;2022-08-19T02:10:54;21.10;99.90
63771;DHT22;60282;43.862;18.430;2022-08-19T02:13:19;21.20;99.90
63771;DHT22;60282;43.862;18.430;2022-08-19T02:15:45;21.30;99.90
63771;DHT22;60282;43.862;18.430;2022-08-19T02:18:11;21.90;99.90
63771;DHT22;60282;43.862;18.430;2022-08-19T02:20:41;21.50;99.90
63771;DHT22;60282;43.862;18.430;2022-08-19T02:23:09;22.20;99.90
63771;DHT22;60282;43.862;18.430;2022-08-19T02:28:01;22.20;99.90
63771;DHT22;60282;43.862;18.430;2022-08-19T02:30:27;22.50;99.90
63771;DHT22;60282;43.862;18.430;2022-08-19T02:32:53;22.50;99.90
63771;DHT22;60282;43.862;18.430;2022-08-19T02:35:20;22.70;99.90
63771;DHT22;60282;43.862;18.430;2022-08-19T02:37:47;22.80;99.90
63771;DHT22;60282;43.862;18.430;2022-08-19T02:40:32;22.60;99.90
63771;DHT22;60282;43.862;18.430;2022-08-19T02:43:06;24.20;99.90
63771;DHT22;60282;43.862;18.430;2022-08-19T02:45:34;23.10;99.60
63771;DHT22;60282;43.862;18.430;2022-08-19T02:48:01;21.90;99.30
63771;DHT22;60282;43.862;18.430;2022-08-19T02:50:27;23.30;99.30
63771;DHT22;60282;43.862;18.430;2022-08-19T02:52:53;23.90;99.60
63771;DHT22;60282;43.862;18.430;2022-08-19T02:55:19;23.20;99.40
63771;DHT22;60282;43.862;18.430;2022-08-19T02:57:46;23.50;98.70
63771;DHT22;60282;43.862;18.430;2022-08-19T03:00:14;22.70;98.80
63771;DHT22;60282;43.862;18.430;2022-08-19T03:02:40;21.90;99.70
63771;DHT22;60282;43.862;18.430;2022-08-19T03:05:08;21.80;99.90
63771;DHT22;60282;43.862;18.430;2022-08-19T03:07:35;21.60;99.90
63771;DHT22;60282;43.862;18.430;2022-08-19T03:10:02;20.70;99.90
63771;DHT22;60282;43.862;18.430;2022-08-19T03:12:28;21.00;99.90
63771;DHT22;60282;43.862;18.430;2022-08-19T03:14:54;20.80;99.90
63771;DHT22;60282;43.862;18.430;2022-08-19T03:17:21;20.70;99.90
63771;DHT22;60282;43.862;18.430;2022-08-19T03:19:46;20.60;99.90
63771;DHT22;60282;43.862;18.430;2022-08-19T03:22:12;20.70;99.90
63771;DHT22;60282;43.862;18.430;2022-08-19T03:24:38;20.70;99.90
63771;DHT22;60282;43.862;18.430;2022-08-19T03:27:04;20.70;99.90
63771;DHT22;60282;43.862;18.430;2022-08-19T03:29:31;20.50;99.90
63771;DHT22;60282;43.862;18.430;2022-08-19T03:32:02;20.30;99.90
63771;DHT22;60282;43.862;18.430;2022-08-19T03:34:30;20.30;99.90
63771;DHT22;60282;43.862;18.430;2022-08-19T03:36:58;20.20;99.90
63771;DHT22;60282;43.862;18.430;2022-08-19T03:39:26;20.20;99.90
63771;DHT22;60282;43.862;18.430;2022-08-19T03:41:53;20.10;99.90
63771;DHT22;60282;43.862;18.430;2022-08-19T03:44:22;20.10;99.90
63771;DHT22;60282;43.862;18.430;2022-08-19T03:46:58;20.10;99.90
63771;DHT22;60282;43.862;18.430;2022-08-19T03:52:05;20.60;99.90
63771;DHT22;60282;43.862;18.430;2022-08-19T03:54:38;20.60;99.90
63771;DHT22;60282;43.862;18.430;2022-08-19T03:57:05;20.90;99.90
63771;DHT22;60282;43.862;18.430;2022-08-19T03:59:34;19.10;99.90
63771;DHT22;60282;43.862;18.430;2022-08-19T04:02:05;20.50;99.90
63771;DHT22;60282;43.862;18.430;2022-08-19T04:04:34;20.60;99.90
63771;DHT22;60282;43.862;18.430;2022-08-19T04:07:01;21.00;99.90
63771;DHT22;60282;43.862;18.430;2022-08-19T04:09:27;21.10;99.90
63771;DHT22;60282;43.862;18.430;2022-08-19T04:11:56;21.50;99.90
63771;DHT22;60282;43.862;18.430;2022-08-19T04:14:26;21.70;99.90
63771;DHT22;60282;43.862;18.430;2022-08-19T04:16:53;21.70;99.90
63771;DHT22;60282;43.862;18.430;2022-08-19T04:19:19;21.40;99.90
63771;DHT22;60282;43.862;18.430;2022-08-19T04:21:47;21.10;99.90
63771;DHT22;60282;43.862;18.430;2022-08-19T04:24:14;21.40;99.90
63771;DHT22;60282;43.862;18.430;2022-08-19T04:26:40;21.40;99.90
63771;DHT22;60282;43.862;18.430;2022-08-19T04:29:16;21.60;99.90
63771;DHT22;60282;43.862;18.430;2022-08-19T04:31:44;21.80;99.90
63771;DHT22;60282;43.862;18.430;2022-08-19T04:34:12;22.10;99.90
63771;DHT22;60282;43.862;18.430;2022-08-19T04:36:39;22.40;99.90
63771;DHT22;60282;43.862;18.430;2022-08-19T04:39:15;22.60;99.90
63771;DHT22;60282;43.862;18.430;2022-08-19T04:41:42;22.70;99.90
63771;DHT22;60282;43.862;18.430;2022-08-19T04:44:27;22.80;99.90
63771;DHT22;60282;43.862;18.430;2022-08-19T04:46:56;23.00;99.90
63771;DHT22;60282;43.862;18.430;2022-08-19T04:49:23;23.10;99.90
63771;DHT22;60282;43.862;18.430;2022-08-19T04:51:50;23.10;99.60
63771;DHT22;60282;43.862;18.430;2022-08-19T04:54:26;23.30;99.90
63771;DHT22;60282;43.862;18.430;2022-08-19T04:56:53;23.90;99.90
63771;DHT22;60282;43.862;18.430;2022-08-19T04:59:19;23.50;99.90
63771;DHT22;60282;43.862;18.430;2022-08-19T05:01:46;23.00;99.90
63771;DHT22;60282;43.862;18.430;2022-08-19T05:04:19;23.30;99.90
63771;DHT22;60282;43.862;18.430;2022-08-19T05:06:46;23.80;99.90
63771;DHT22;60282;43.862;18.430;2022-08-19T05:09:13;23.20;99.60
63771;DHT22;60282;43.862;18.430;2022-08-19T05:11:39;23.50;99.90
63771;DHT22;60282;43.862;18.430;2022-08-19T05:14:07;23.40;99.90
63771;DHT22;60282;43.862;18.430;2022-08-19T05:16:33;23.70;99.70
63771;DHT22;60282;43.862;18.430;2022-08-19T05:18:59;23.50;99.10
63771;DHT22;60282;43.862;18.430;2022-08-19T05:26:56;22.70;99.20
63771;DHT22;60282;43.862;18.430;2022-08-19T05:29:25;23.00;99.90
63771;DHT22;60282;43.862;18.430;2022-08-19T05:31:52;22.90;99.90
63771;DHT22;60282;43.862;18.430;2022-08-19T05:34:20;22.30;99.90
63771;DHT22;60282;43.862;18.430;2022-08-19T05:36:48;21.50;99.90
63771;DHT22;60282;43.862;18.430;2022-08-19T05:39:19;22.80;99.90
63771;DHT22;60282;43.862;18.430;2022-08-19T05:41:48;22.70;99.90
63771;DHT22;60282;43.862;18.430;2022-08-19T05:44:16;22.80;99.60
63771;DHT22;60282;43.862;18.430;2022-08-19T05:46:44;22.70;99.70
63771;DHT22;60282;43.862;18.430;2022-08-19T05:49:13;22.70;99.90
63771;DHT22;60282;43.862;18.430;2022-08-19T05:51:39;22.70;99.90
63771;DHT22;60282;43.862;18.430;2022-08-19T05:54:06;22.70;99.90
63771;DHT22;60282;43.862;18.430;2022-08-19T05:56:36;22.80;99.90
63771;DHT22;60282;43.862;18.430;2022-08-19T05:59:08;22.80;99.90
63771;DHT22;60282;43.862;18.430;2022-08-19T06:01:36;23.10;99.90
63771;DHT22;60282;43.862;18.430;2022-08-19T06:04:03;23.20;99.90
63771;DHT22;60282;43.862;18.430;2022-08-19T06:06:29;23.10;99.90
63771;DHT22;60282;43.862;18.430;2022-08-19T06:08:55;23.20;99.90
63771;DHT22;60282;43.862;18.430;2022-08-19T06:11:24;23.20;99.90
63771;DHT22;60282;43.862;18.430;2022-08-19T06:13:53;23.20;99.90
63771;DHT22;60282;43.862;18.430;2022-08-19T06:16:19;23.20;99.90
63771;DHT22;60282;43.862;18.430;2022-08-19T06:18:52;23.50;99.90
63771;DHT22;60282;43.862;18.430;2022-08-19T06:21:23;23.50;99.90
63771;DHT22;60282;43.862;18.430;2022-08-19T06:23:49;23.70;99.30
63771;DHT22;60282;43.862;18.430;2022-08-19T06:26:17;23.70;99.60
63771;DHT22;60282;43.862;18.430;2022-08-19T06:28:47;23.80;99.30
63771;DHT22;60282;43.862;18.430;2022-08-19T06:31:24;25.60;99.80
63771;DHT22;60282;43.862;18.430;2022-08-19T06:33:51;24.00;99.50
63771;DHT22;60282;43.862;18.430;2022-08-19T06:36:22;23.90;99.20
63771;DHT22;60282;43.862;18.430;2022-08-19T06:38:55;24.00;99.30
63771;DHT22;60282;43.862;18.430;2022-08-19T06:41:24;24.20;99.00
63771;DHT22;60282;43.862;18.430;2022-08-19T06:43:52;24.30;99.60
63771;DHT22;60282;43.862;18.430;2022-08-19T06:46:18;24.40;99.70
63771;DHT22;60282;43.862;18.430;2022-08-19T06:51:16;24.60;98.30
63771;DHT22;60282;43.862;18.430;2022-08-19T06:53:46;27.10;99.00
63771;DHT22;60282;43.862;18.430;2022-08-19T06:56:17;25.10;98.40
63771;DHT22;60282;43.862;18.430;2022-08-19T06:58:43;24.60;98.80
63771;DHT22;60282;43.862;18.430;2022-08-19T07:01:12;24.90;99.60
63771;DHT22;60282;43.862;18.430;2022-08-19T07:03:39;24.70;98.70
63771;DHT22;60282;43.862;18.430;2022-08-19T07:06:15;25.00;98.20
63771;DHT22;60282;43.862;18.430;2022-08-19T07:08:46;25.00;98.00
63771;DHT22;60282;43.862;18.430;2022-08-19T07:11:17;24.70;97.50
63771;DHT22;60282;43.862;18.430;2022-08-19T07:13:44;25.30;97.90
63771;DHT22;60282;43.862;18.430;2022-08-19T07:16:16;25.30;97.80
63771;DHT22;60282;43.862;18.430;2022-08-19T07:18:43;25.40;96.70
63771;DHT22;60282;43.862;18.430;2022-08-19T07:21:23;25.30;97.00
63771;DHT22;60282;43.862;18.430;2022-08-19T07:24:01;25.50;96.50
63771;DHT22;60282;43.862;18.430;2022-08-19T07:33:26;26.50;95.80
63771;DHT22;60282;43.862;18.430;2022-08-19T07:40:20;26.10;96.00
63771;DHT22;60282;43.862;18.430;2022-08-19T07:43:27;26.50;95.40
63771;DHT22;60282;43.862;18.430;2022-08-19T07:46:04;26.20;95.50
63771;DHT22;60282;43.862;18.430;2022-08-19T07:48:55;27.20;94.90
63771;DHT22;60282;43.862;18.430;2022-08-19T07:51:27;26.40;95.60
63771;DHT22;60282;43.862;18.430;2022-08-19T07:53:53;26.50;95.40
63771;DHT22;60282;43.862;18.430;2022-08-19T07:56:35;26.40;94.80
63771;DHT22;60282;43.862;18.430;2022-08-19T07:59:23;26.40;95.40
63771;DHT22;60282;43.862;18.430;2022-08-19T08:01:54;26.30;95.20
63771;DHT22;60282;43.862;18.430;2022-08-19T08:04:33;27.00;95.50
63771;DHT22;60282;43.862;18.430;2022-08-19T08:10:50;29.60;95.50
63771;DHT22;60282;43.862;18.430;2022-08-19T08:13:35;27.50;94.20
63771;DHT22;60282;43.862;18.430;2022-08-19T08:16:01;27.60;94.00
63771;DHT22;60282;43.862;18.430;2022-08-19T08:18:57;27.80;93.40
63771;DHT22;60282;43.862;18.430;2022-08-19T08:21:48;28.10;93.60
63771;DHT22;60282;43.862;18.430;2022-08-19T08:24:17;28.10;92.30
63771;DHT22;60282;43.862;18.430;2022-08-19T08:26:53;28.10;93.10
63771;DHT22;60282;43.862;18.430;2022-08-19T08:29:22;28.10;93.40
63771;DHT22;60282;43.862;18.430;2022-08-19T08:32:13;28.30;93.10
63771;DHT22;60282;43.862;18.430;2022-08-19T08:34:40;28.70;92.20
63771;DHT22;60282;43.862;18.430;2022-08-19T08:37:06;29.10;91.90
63771;DHT22;60282;43.862;18.430;2022-08-19T08:47:31;29.70;90.60
63771;DHT22;60282;43.862;18.430;2022-08-19T08:50:20;30.40;89.80
63771;DHT22;60282;43.862;18.430;2022-08-19T08:52:52;30.00;89.10
63771;DHT22;60282;43.862;18.430;2022-08-19T08:55:22;30.10;88.90
63771;DHT22;60282;43.862;18.430;2022-08-19T09:00:21;30.10;89.20
63771;DHT22;60282;43.862;18.430;2022-08-19T09:02:48;30.40;88.90
63771;DHT22;60282;43.862;18.430;2022-08-19T09:05:14;30.70;87.40
63771;DHT22;60282;43.862;18.430;2022-08-19T09:13:21;30.90;85.50
63771;DHT22;60282;43.862;18.430;2022-08-19T09:15:52;30.70;85.50
63771;DHT22;60282;43.862;18.430;2022-08-19T09:18:23;30.70;85.60
63771;DHT22;60282;43.862;18.430;2022-08-19T09:20:52;30.80;85.50
63771;DHT22;60282;43.862;18.430;2022-08-19T09:23:21;30.90;84.50
63771;DHT22;60282;43.862;18.430;2022-08-19T09:25:48;31.00;83.90
63771;DHT22;60282;43.862;18.430;2022-08-19T09:28:14;30.80;84.90
63771;DHT22;60282;43.862;18.430;2022-08-19T09:30:44;30.50;85.40
63771;DHT22;60282;43.862;18.430;2022-08-19T09:33:12;32.20;87.00
63771;DHT22;60282;43.862;18.430;2022-08-19T09:35:47;30.10;87.80
63771;DHT22;60282;43.862;18.430;2022-08-19T09:38:13;30.00;86.90
63771;DHT22;60282;43.862;18.430;2022-08-19T09:40:41;30.00;87.00
63771;DHT22;60282;43.862;18.430;2022-08-19T09:43:12;30.10;86.00
63771;DHT22;60282;43.862;18.430;2022-08-19T09:45:41;30.40;87.00
63771;DHT22;60282;43.862;18.430;2022-08-19T09:48:16;29.00;84.60
63771;DHT22;60282;43.862;18.430;2022-08-19T09:50:50;30.20;85.20
63771;DHT22;60282;43.862;18.430;2022-08-19T09:53:17;30.20;85.20
63771;DHT22;60282;43.862;18.430;2022-08-19T09:55:48;30.30;86.60
63771;DHT22;60282;43.862;18.430;2022-08-19T09:58:22;30.40;86.70
63771;DHT22;60282;43.862;18.430;2022-08-19T10:00:54;30.60;89.10
63771;DHT22;60282;43.862;18.430;2022-08-19T10:03:20;30.90;88.30
63771;DHT22;60282;43.862;18.430;2022-08-19T10:05:46;30.80;88.30
63771;DHT22;60282;43.862;18.430;2022-08-19T10:08:24;31.10;88.40
63771;DHT22;60282;43.862;18.430;2022-08-19T10:10:54;31.20;87.50
63771;DHT22;60282;43.862;18.430;2022-08-19T10:13:23;31.50;87.30
63771;DHT22;60282;43.862;18.430;2022-08-19T10:16:04;31.50;86.10
63771;DHT22;60282;43.862;18.430;2022-08-19T10:18:36;31.50;86.70
63771;DHT22;60282;43.862;18.430;2022-08-19T10:21:13;30.20;84.90
63771;DHT22;60282;43.862;18.430;2022-08-19T10:23:46;31.20;86.50
63771;DHT22;60282;43.862;18.430;2022-08-19T10:26:28;31.30;86.50
63771;DHT22;60282;43.862;18.430;2022-08-19T10:29:05;29.50;84.00
63771;DHT22;60282;43.862;18.430;2022-08-19T10:31:33;31.30;85.30
63771;DHT22;60282;43.862;18.430;2022-08-19T10:34:00;31.80;85.70
63771;DHT22;60282;43.862;18.430;2022-08-19T10:36:29;31.50;84.30
63771;DHT22;60282;43.862;18.430;2022-08-19T10:39:09;31.70;85.00
63771;DHT22;60282;43.862;18.430;2022-08-19T10:41:42;31.80;83.40
63771;DHT22;60282;43.862;18.430;2022-08-19T10:44:11;31.90;84.50
63771;DHT22;60282;43.862;18.430;2022-08-19T10:46:42;31.80;82.10
63771;DHT22;60282;43.862;18.430;2022-08-19T10:49:13;31.80;82.60
63771;DHT22;60282;43.862;18.430;2022-08-19T10:51:39;31.60;83.70
63771;DHT22;60282;43.862;18.430;2022-08-19T10:54:24;31.50;84.20
63771;DHT22;60282;43.862;18.430;2022-08-19T10:57:21;31.50;84.50
63771;DHT22;60282;43.862;18.430;2022-08-19T10:59:49;29.00;83.30
63771;DHT22;60282;43.862;18.430;2022-08-19T11:02:24;31.40;84.70
63771;DHT22;60282;43.862;18.430;2022-08-19T11:04:50;31.20;87.60
63771;DHT22;60282;43.862;18.430;2022-08-19T11:07:20;31.20;85.70
63771;DHT22;60282;43.862;18.430;2022-08-19T11:12:17;31.30;84.20
63771;DHT22;60282;43.862;18.430;2022-08-19T11:14:48;31.30;86.80
63771;DHT22;60282;43.862;18.430;2022-08-19T11:17:24;31.30;85.00
63771;DHT22;60282;43.862;18.430;2022-08-19T11:20:00;31.40;85.20
63771;DHT22;60282;43.862;18.430;2022-08-19T11:22:29;31.20;85.20
63771;DHT22;60282;43.862;18.430;2022-08-19T11:25:05;31.40;85.10
63771;DHT22;60282;43.862;18.430;2022-08-19T11:27:38;31.20;83.90
63771;DHT22;60282;43.862;18.430;2022-08-19T11:30:13;31.20;84.90
63771;DHT22;60282;43.862;18.430;2022-08-19T11:32:42;31.00;84.80
63771;DHT22;60282;43.862;18.430;2022-08-19T11:35:17;30.90;84.40
63771;DHT22;60282;43.862;18.430;2022-08-19T11:37:54;30.70;85.30
63771;DHT22;60282;43.862;18.430;2022-08-19T11:40:29;30.70;85.60
63771;DHT22;60282;43.862;18.430;2022-08-19T11:43:00;31.40;83.40
63771;DHT22;60282;43.862;18.430;2022-08-19T11:45:29;30.60;83.40
63771;DHT22;60282;43.862;18.430;2022-08-19T11:47:57;31.00;83.40
63771;DHT22;60282;43.862;18.430;2022-08-19T11:50:26;30.60;83.20
63771;DHT22;60282;43.862;18.430;2022-08-19T11:52:55;30.80;81.30
63771;DHT22;60282;43.862;18.430;2022-08-19T11:55:24;30.40;79.60
63771;DHT22;60282;43.862;18.430;2022-08-19T11:57:59;30.40;81.30
63771;DHT22;60282;43.862;18.430;2022-08-19T12:00:28;30.40;80.30
63771;DHT22;60282;43.862;18.430;2022-08-19T12:02:54;34.60;83.70
63771;DHT22;60282;43.862;18.430;2022-08-19T12:05:20;31.20;82.00
63771;DHT22;60282;43.862;18.430;2022-08-19T12:07:46;30.70;80.70
63771;DHT22;60282;43.862;18.430;2022-08-19T12:10:11;30.70;81.00
63771;DHT22;60282;43.862;18.430;2022-08-19T12:12:37;30.70;81.30
63771;DHT22;60282;43.862;18.430;2022-08-19T12:15:09;30.80;81.60
63771;DHT22;60282;43.862;18.430;2022-08-19T12:17:36;28.50;79.60
63771;DHT22;60282;43.862;18.430;2022-08-19T12:20:03;30.20;82.00
63771;DHT22;60282;43.862;18.430;2022-08-19T12:22:30;31.50;84.10
63771;DHT22;60282;43.862;18.430;2022-08-19T12:24:56;29.90;83.80
63771;DHT22;60282;43.862;18.430;2022-08-19T12:27:23;29.80;84.40
63771;DHT22;60282;43.862;18.430;2022-08-19T12:29:51;29.80;84.80
63771;DHT22;60282;43.862;18.430;2022-08-19T12:32:17;27.60;83.20
63771;DHT22;60282;43.862;18.430;2022-08-19T12:34:43;29.70;84.00
63771;DHT22;60282;43.862;18.430;2022-08-19T12:39:40;29.30;80.10
63771;DHT22;60282;43.862;18.430;2022-08-19T12:42:08;29.70;81.90
63771;DHT22;60282;43.862;18.430;2022-08-19T12:44:35;29.50;82.50
63771;DHT22;60282;43.862;18.430;2022-08-19T12:47:01;29.50;82.90
63771;DHT22;60282;43.862;18.430;2022-08-19T12:49:29;27.90;81.70
63771;DHT22;60282;43.862;18.430;2022-08-19T12:51:55;29.40;82.80
63771;DHT22;60282;43.862;18.430;2022-08-19T12:54:20;29.20;83.90
63771;DHT22;60282;43.862;18.430;2022-08-19T12:56:46;29.30;83.70
63771;DHT22;60282;43.862;18.430;2022-08-19T13:01:40;29.20;82.70
63771;DHT22;60282;43.862;18.430;2022-08-19T13:04:09;29.10;76.40
63771;DHT22;60282;43.862;18.430;2022-08-19T13:09:03;28.80;76.20
63771;DHT22;60282;43.862;18.430;2022-08-19T13:11:29;28.70;76.70
63771;DHT22;60282;43.862;18.430;2022-08-19T13:14:04;28.80;72.60
63771;DHT22;60282;43.862;18.430;2022-08-19T13:16:37;28.90;71.40
63771;DHT22;60282;43.862;18.430;2022-08-19T13:19:06;29.30;75.60
63771;DHT22;60282;43.862;18.430;2022-08-19T13:21:33;29.20;74.60
63771;DHT22;60282;43.862;18.430;2022-08-19T13:23:59;29.10;72.70
63771;DHT22;60282;43.862;18.430;2022-08-19T13:26:25;29.20;71.00
63771;DHT22;60282;43.862;18.430;2022-08-19T13:28:50;29.50;66.80
63771;DHT22;60282;43.862;18.430;2022-08-19T13:31:38;29.70;66.40
63771;DHT22;60282;43.862;18.430;2022-08-19T13:34:38;29.80;62.00
63771;DHT22;60282;43.862;18.430;2022-08-19T13:37:05;28.00;59.40
63771;DHT22;60282;43.862;18.430;2022-08-19T13:39:32;30.10;59.40
63771;DHT22;60282;43.862;18.430;2022-08-19T13:42:04;30.20;60.60
63771;DHT22;60282;43.862;18.430;2022-08-19T13:44:40;30.20;61.50
63771;DHT22;60282;43.862;18.430;2022-08-19T13:47:09;30.20;61.70
63771;DHT22;60282;43.862;18.430;2022-08-19T13:49:38;30.20;61.50
63771;DHT22;60282;43.862;18.430;2022-08-19T13:52:04;30.10;61.00
63771;DHT22;60282;43.862;18.430;2022-08-19T13:54:33;30.20;59.90
63771;DHT22;60282;43.862;18.430;2022-08-19T13:56:59;30.10;62.50
63771;DHT22;60282;43.862;18.430;2022-08-19T13:59:25;30.10;60.30
63771;DHT22;60282;43.862;18.430;2022-08-19T14:01:57;30.10;60.70
63771;DHT22;60282;43.862;18.430;2022-08-19T14:04:23;32.80;62.20
63771;DHT22;60282;43.862;18.430;2022-08-19T14:06:49;30.10;61.40
63771;DHT22;60282;43.862;18.430;2022-08-19T14:09:14;30.10;61.20
63771;DHT22;60282;43.862;18.430;2022-08-19T14:11:46;30.10;61.20
63771;DHT22;60282;43.862;18.430;2022-08-19T14:14:14;30.10;60.10
63771;DHT22;60282;43.862;18.430;2022-08-19T14:16:43;29.80;58.60
63771;DHT22;60282;43.862;18.430;2022-08-19T14:19:15;29.50;59.10
63771;DHT22;60282;43.862;18.430;2022-08-19T14:21:49;30.10;60.50
63771;DHT22;60282;43.862;18.430;2022-08-19T14:24:22;30.20;60.90
63771;DHT22;60282;43.862;18.430;2022-08-19T14:26:51;30.30;62.10
63771;DHT22;60282;43.862;18.430;2022-08-19T14:29:20;30.30;62.00
63771;DHT22;60282;43.862;18.430;2022-08-19T14:32:01;30.20;62.40
63771;DHT22;60282;43.862;18.430;2022-08-19T14:34:33;30.10;61.90
63771;DHT22;60282;43.862;18.430;2022-08-19T14:37:05;30.40;61.40
63771;DHT22;60282;43.862;18.430;2022-08-19T14:39:57;30.10;64.30
63771;DHT22;60282;43.862;18.430;2022-08-19T14:42:23;30.60;59.80
63771;DHT22;60282;43.862;18.430;2022-08-19T14:44:51;30.10;62.60
63771;DHT22;60282;43.862;18.430;2022-08-19T14:47:17;30.10;61.90
63771;DHT22;60282;43.862;18.430;2022-08-19T14:49:54;30.10;62.80
63771;DHT22;60282;43.862;18.430;2022-08-19T14:52:26;29.20;66.00
63771;DHT22;60282;43.862;18.430;2022-08-19T14:55:07;30.10;61.80
63771;DHT22;60282;43.862;18.430;2022-08-19T14:57:41;30.30;63.10
63771;DHT22;60282;43.862;18.430;2022-08-19T15:00:14;30.30;62.50
63771;DHT22;60282;43.862;18.430;2022-08-19T15:02:49;31.90;64.30
63771;DHT22;60282;43.862;18.430;2022-08-19T15:05:16;30.80;62.30
63771;DHT22;60282;43.862;18.430;2022-08-19T15:07:42;29.50;61.60
63771;DHT22;60282;43.862;18.430;2022-08-19T15:10:09;30.70;62.50
63771;DHT22;60282;43.862;18.430;2022-08-19T15:12:52;30.90;62.90
63771;DHT22;60282;43.862;18.430;2022-08-19T15:15:38;31.20;64.30
63771;DHT22;60282;43.862;18.430;2022-08-19T15:18:06;32.90;64.40
63771;DHT22;60282;43.862;18.430;2022-08-19T15:20:41;29.80;65.20
63771;DHT22;60282;43.862;18.430;2022-08-19T15:23:21;31.20;65.90
63771;DHT22;60282;43.862;18.430;2022-08-19T15:25:50;31.00;62.30
63771;DHT22;60282;43.862;18.430;2022-08-19T15:28:24;30.90;61.60
63771;DHT22;60282;43.862;18.430;2022-08-19T15:30:55;30.70;60.70
63771;DHT22;60282;43.862;18.430;2022-08-19T15:33:20;30.90;60.40
63771;DHT22;60282;43.862;18.430;2022-08-19T15:35:54;30.50;59.20
63771;DHT22;60282;43.862;18.430;2022-08-19T15:38:25;30.50;60.90
63771;DHT22;60282;43.862;18.430;2022-08-19T15:41:23;31.40;60.60
63771;DHT22;60282;43.862;18.430;2022-08-19T15:44:10;30.50;61.30
63771;DHT22;60282;43.862;18.430;2022-08-19T15:46:48;30.00;58.50
63771;DHT22;60282;43.862;18.430;2022-08-19T15:49:17;30.00;59.00
63771;DHT22;60282;43.862;18.430;2022-08-19T15:51:48;29.90;59.40
63771;DHT22;60282;43.862;18.430;2022-08-19T15:54:22;29.80;59.60
63771;DHT22;60282;43.862;18.430;2022-08-19T15:57:06;29.80;59.60
63771;DHT22;60282;43.862;18.430;2022-08-19T16:06:14;28.30;59.30
63771;DHT22;60282;43.862;18.430;2022-08-19T16:08:55;29.30;59.90
63771;DHT22;60282;43.862;18.430;2022-08-19T16:11:33;29.30;61.10
63771;DHT22;60282;43.862;18.430;2022-08-19T16:16:40;29.10;61.30
63771;DHT22;60282;43.862;18.430;2022-08-19T16:19:08;28.80;61.20
63771;DHT22;60282;43.862;18.430;2022-08-19T16:21:37;28.70;64.40
63771;DHT22;60282;43.862;18.430;2022-08-19T16:24:08;28.60;61.80
63771;DHT22;60282;43.862;18.430;2022-08-19T16:26:36;28.60;64.80
63771;DHT22;60282;43.862;18.430;2022-08-19T16:29:07;28.50;64.30
63771;DHT22;60282;43.862;18.430;2022-08-19T16:31:37;28.30;64.50
63771;DHT22;60282;43.862;18.430;2022-08-19T16:34:06;28.20;65.50
63771;DHT22;60282;43.862;18.430;2022-08-19T16:36:42;28.10;66.00
63771;DHT22;60282;43.862;18.430;2022-08-19T16:41:55;28.10;63.00